Saturday, November 01, 2014
14:08 UTC
  |  Log In   |  Register Free
Airport Search:

Northeast Philadelphia Airport
(KPNE)

FAA data valid effective September 18, 2014 - November 13, 2014 (unless otherwise noted).

 
 
 
 
 
 
 
 
 
 
 
 
 
 

Current Aviation Weather for Northeast Philadelphia Airport (KPNE)

The most recent METAR observation for KPNE was updated at: 1314
METAR Summary (Translated METAR)
KPNE
011254Z AUTO 02016G22KT 6SM -RA OVC045 07/04 A2984 RMK AO2 SLP105 P0012 T00720039 TSNO $
KVAY
011254Z AUTO 02013G21KT 4SM -RA BR FEW015 FEW023 OVC050 06/04 A2980 RMK AO2 SLP092 P0016 T00610044
(11.3 nm SE from KPNE)
KLOM
011255Z AUTO 03005KT 5SM BKN013 BKN020 OVC040 07/06 A2982 RMK AO1 P0005
(12.2 nm NW from KPNE)
TAF Summary (Translated TAF)
KPNE
011124Z 0112/0212 03010G20KT 6SM -RA OVC040 TEMPO 0112/0116 4SM RA BR BKN025 OVC035 FM011800 01014G24KT P6SM BKN040 FM020000 34016G26KT P6SM BKN040
  Airport Weather Conditions for KPNE

 Current Weather at PNE
45° F
Light Rain
North winds at 18.4 mph
PNE NOAA Radar

Pressure: 29.84 in
Humidity: 80%
Wind: from the North at 18.4 gusting to 25.3 MPH (16 gusting to 22 KT)
Dew Point: 39.0°F
Visibility: 6.00 mi


Airport Weather Forecast for KPNE

Translated METAR and TAF for KPNE
Translated METAR for KPNE (1403 UTC 01 November 2014)
found at http://aviationweather.gov/adds/metars/
 
METAR text: KPNE 011354Z AUTO 02017KT 7SM -RA OVC060 08/04 A2983 RMK AO2 PK WND 02026/1310 SLP102 P0010 T00780039 TSNO $
Conditions at: KPNE (PHILADELPHIA/NE , PA, US) observed 1354 UTC 01 November 2014
Temperature: 7.8°C (46°F)
Dewpoint: 3.9°C (39°F) [RH = 76%]
Pressure (altimeter): 29.83 inches Hg (1010.2 mb)
[Sea-level pressure: 1010.2 mb]
Winds: from the NNE (20 degrees) at 20 MPH (17 knots; 8.8 m/s)
Visibility: 7 miles (11 km)
Ceiling: 6000 feet AGL
Clouds: overcast cloud deck at 6000 feet AGL
Weather: -RA  (light rain)
SOME DATA ABOVE MAY BE INACCURATE!!!
"$" is an indication the sensor requires maintenance
Translated TAF for KPNE
Forecast for: KPNE (PHILADELPHIA/NE , PA, US)
TAF Text: KPNE 011329Z 0113/0212 02012G22KT 6SM -RA OVC040
Forecast period: 1300 to 1800 UTC 01 November 2014
Forecast type: FROM: standard forecast or significant change
Winds: from the NNE (20 degrees) at 14 MPH (12 knots; 6.2 m/s)
gusting to 25 MPH (22 knots; 11.4 m/s)
Visibility: 6 miles (10 km)
Ceiling: 4000 feet AGL
Clouds: overcast cloud deck at 4000 feet AGL
Weather: -RA  (light rain)
TAF Text: TEMPO 0113/0116 4SM RA BR BKN025 OVC035
Forecast period: 1300 to 1600 UTC 01 November 2014
Forecast type: TEMPORARY: The following changes expected for less than half the time period
Visibility: 4 miles (6 km)
Ceiling: 2500 feet AGL
Clouds: broken clouds at 2500 feet AGL
overcast cloud deck at 3500 feet AGL
Weather: RA BR  (rain, mist)
TAF Text: FM011800 01014G24KT P6SM BKN040
Forecast period: 1800 UTC 01 November 2014 to 0000 UTC 02 November 2014
Forecast type: FROM: standard forecast or significant change
Winds: from the N (10 degrees) at 16 MPH (14 knots; 7.3 m/s)
gusting to 28 MPH (24 knots; 12.5 m/s)
Visibility: 6 or more miles (10+ km)
Ceiling: 4000 feet AGL
Clouds: broken clouds at 4000 feet AGL
Weather: no significant weather forecast for this period
TAF Text: FM020000 34016G26KT P6SM BKN040
Forecast period: 0000 to 1200 UTC 02 November 2014
Forecast type: FROM: standard forecast or significant change
Winds: from the NNW (340 degrees) at 18 MPH (16 knots; 8.3 m/s)
gusting to 30 MPH (26 knots; 13.5 m/s)
Visibility: 6 or more miles (10+ km)
Ceiling: 4000 feet AGL
Clouds: broken clouds at 4000 feet AGL
Weather: no significant weather forecast for this period

Find All Airport Services Find A Hotel Find A Rental Car Find A Golf Course Find A Restaurant $100 Hamburger



FBO's on the Field
FBO Company Facility Photos Services Transportation Aviation Fuel Prices: Prices include tax
Catering Weather Repair Courtesy Rental Type 100LL JetA JetA+ MOGAS 8087
 
Atlantic Aviation

This FBO has not yet been rated
FS:Texaco
Last Updated: Oct-31
Login to update fuel prices
SS:
Contact Atlantic AviationMore FBO Information
 
North Philadelphia Jet Center

Currently rated 5 by 2 people
FS:Avfuel
Last Updated: Oct-21
Login to update fuel prices
SS:
Contact North Philadelphia Jet CenterMore FBO Information
 
Add another FBO Facility Photos Catering Weather Repair Courtesy Rental Type 100LL JetA JetA+ MOGAS 8087
Services Transportation Aviation Fuel Prices: Prices include tax


model-print
model-print
model-print
model-print